sensor_id;sensor_type;location;lat;lon;timestamp;P1;durP1;ratioP1;P2;durP2;ratioP2
10900;SDS011;5503;53.208;10.392;2023-03-01T00:01:06;9.98;;;4.70;;
10900;SDS011;5503;53.208;10.392;2023-03-01T00:03:35;10.88;;;5.60;;
10900;SDS011;5503;53.208;10.392;2023-03-01T00:06:03;8.53;;;5.00;;
10900;SDS011;5503;53.208;10.392;2023-03-01T00:08:32;7.75;;;5.03;;
10900;SDS011;5503;53.208;10.392;2023-03-01T00:11:00;9.98;;;5.47;;
10900;SDS011;5503;53.208;10.392;2023-03-01T00:13:28;9.43;;;4.95;;
10900;SDS011;5503;53.208;10.392;2023-03-01T00:15:55;9.35;;;4.05;;
10900;SDS011;5503;53.208;10.392;2023-03-01T00:18:22;11.50;;;5.20;;
10900;SDS011;5503;53.208;10.392;2023-03-01T00:20:50;8.18;;;4.82;;
10900;SDS011;5503;53.208;10.392;2023-03-01T00:23:17;10.52;;;5.15;;
10900;SDS011;5503;53.208;10.392;2023-03-01T00:25:46;10.57;;;5.60;;
10900;SDS011;5503;53.208;10.392;2023-03-01T00:28:13;8.95;;;5.38;;
10900;SDS011;5503;53.208;10.392;2023-03-01T00:30:40;10.47;;;4.80;;
10900;SDS011;5503;53.208;10.392;2023-03-01T00:33:07;9.65;;;5.82;;
10900;SDS011;5503;53.208;10.392;2023-03-01T00:35:35;12.30;;;6.13;;
10900;SDS011;5503;53.208;10.392;2023-03-01T00:38:02;10.95;;;5.57;;
10900;SDS011;5503;53.208;10.392;2023-03-01T00:40:30;13.98;;;5.63;;
10900;SDS011;5503;53.208;10.392;2023-03-01T00:43:00;10.17;;;4.83;;
10900;SDS011;5503;53.208;10.392;2023-03-01T00:45:27;7.95;;;4.50;;
10900;SDS011;5503;53.208;10.392;2023-03-01T00:47:56;9.90;;;5.05;;
10900;SDS011;5503;53.208;10.392;2023-03-01T00:50:23;8.32;;;4.78;;
10900;SDS011;5503;53.208;10.392;2023-03-01T00:52:52;9.68;;;5.60;;
10900;SDS011;5503;53.208;10.392;2023-03-01T00:55:19;9.53;;;5.37;;
10900;SDS011;5503;53.208;10.392;2023-03-01T00:57:46;8.40;;;4.95;;
10900;SDS011;5503;53.208;10.392;2023-03-01T01:00:15;7.97;;;4.80;;
10900;SDS011;5503;53.208;10.392;2023-03-01T01:02:44;9.50;;;5.10;;
10900;SDS011;5503;53.208;10.392;2023-03-01T01:05:11;8.77;;;4.60;;
10900;SDS011;5503;53.208;10.392;2023-03-01T01:07:38;7.73;;;4.17;;
10900;SDS011;5503;53.208;10.392;2023-03-01T01:10:06;8.18;;;4.57;;
10900;SDS011;5503;53.208;10.392;2023-03-01T01:12:37;8.55;;;4.38;;
10900;SDS011;5503;53.208;10.392;2023-03-01T01:15:05;7.28;;;4.07;;
10900;SDS011;5503;53.208;10.392;2023-03-01T01:17:34;7.80;;;4.50;;
10900;SDS011;5503;53.208;10.392;2023-03-01T01:20:01;8.10;;;4.27;;
10900;SDS011;5503;53.208;10.392;2023-03-01T01:22:28;7.35;;;4.55;;
10900;SDS011;5503;53.208;10.392;2023-03-01T01:24:55;7.60;;;4.93;;
10900;SDS011;5503;53.208;10.392;2023-03-01T01:27:22;7.70;;;4.13;;
10900;SDS011;5503;53.208;10.392;2023-03-01T01:29:49;7.40;;;4.50;;
10900;SDS011;5503;53.208;10.392;2023-03-01T01:32:16;7.13;;;4.13;;
10900;SDS011;5503;53.208;10.392;2023-03-01T01:34:44;7.75;;;4.63;;
10900;SDS011;5503;53.208;10.392;2023-03-01T01:37:12;8.93;;;4.88;;
10900;SDS011;5503;53.208;10.392;2023-03-01T01:39:39;7.85;;;4.53;;
10900;SDS011;5503;53.208;10.392;2023-03-01T01:42:08;9.82;;;4.90;;
10900;SDS011;5503;53.208;10.392;2023-03-01T01:44:42;7.73;;;4.33;;
10900;SDS011;5503;53.208;10.392;2023-03-01T01:47:11;7.40;;;3.97;;
10900;SDS011;5503;53.208;10.392;2023-03-01T01:49:42;9.70;;;4.43;;
10900;SDS011;5503;53.208;10.392;2023-03-01T01:52:16;9.30;;;4.63;;
10900;SDS011;5503;53.208;10.392;2023-03-01T01:54:47;8.18;;;5.05;;
10900;SDS011;5503;53.208;10.392;2023-03-01T01:57:19;9.50;;;4.73;;
10900;SDS011;5503;53.208;10.392;2023-03-01T01:59:49;8.27;;;4.55;;
10900;SDS011;5503;53.208;10.392;2023-03-01T02:02:19;10.48;;;5.03;;
10900;SDS011;5503;53.208;10.392;2023-03-01T02:04:48;8.20;;;4.53;;
10900;SDS011;5503;53.208;10.392;2023-03-01T02:07:19;5.97;;;3.95;;
10900;SDS011;5503;53.208;10.392;2023-03-01T02:09:48;6.83;;;4.20;;
10900;SDS011;5503;53.208;10.392;2023-03-01T02:12:18;8.73;;;4.75;;
10900;SDS011;5503;53.208;10.392;2023-03-01T02:14:47;11.30;;;4.75;;
10900;SDS011;5503;53.208;10.392;2023-03-01T02:17:15;6.63;;;4.50;;
10900;SDS011;5503;53.208;10.392;2023-03-01T02:19:46;7.40;;;3.83;;
10900;SDS011;5503;53.208;10.392;2023-03-01T02:22:25;10.40;;;4.57;;
10900;SDS011;5503;53.208;10.392;2023-03-01T02:24:59;10.43;;;4.55;;
10900;SDS011;5503;53.208;10.392;2023-03-01T02:27:40;11.40;;;4.53;;
10900;SDS011;5503;53.208;10.392;2023-03-01T02:30:14;8.13;;;4.72;;
10900;SDS011;5503;53.208;10.392;2023-03-01T02:32:42;7.13;;;4.00;;
10900;SDS011;5503;53.208;10.392;2023-03-01T02:35:09;8.73;;;4.30;;
10900;SDS011;5503;53.208;10.392;2023-03-01T02:37:39;7.65;;;4.57;;
10900;SDS011;5503;53.208;10.392;2023-03-01T02:40:08;7.50;;;4.25;;
10900;SDS011;5503;53.208;10.392;2023-03-01T02:42:40;6.82;;;3.92;;
10900;SDS011;5503;53.208;10.392;2023-03-01T02:45:11;6.13;;;3.97;;
10900;SDS011;5503;53.208;10.392;2023-03-01T02:47:40;9.53;;;3.97;;
10900;SDS011;5503;53.208;10.392;2023-03-01T02:50:11;7.20;;;3.58;;
10900;SDS011;5503;53.208;10.392;2023-03-01T02:52:51;7.03;;;3.47;;
10900;SDS011;5503;53.208;10.392;2023-03-01T02:55:24;6.68;;;4.38;;
10900;SDS011;5503;53.208;10.392;2023-03-01T02:57:52;6.93;;;4.25;;
10900;SDS011;5503;53.208;10.392;2023-03-01T03:00:22;8.33;;;4.07;;
10900;SDS011;5503;53.208;10.392;2023-03-01T03:02:53;5.53;;;3.45;;
10900;SDS011;5503;53.208;10.392;2023-03-01T03:05:23;5.60;;;3.83;;
10900;SDS011;5503;53.208;10.392;2023-03-01T03:07:51;7.43;;;3.85;;
10900;SDS011;5503;53.208;10.392;2023-03-01T03:10:19;6.10;;;3.50;;
10900;SDS011;5503;53.208;10.392;2023-03-01T03:12:50;6.63;;;4.40;;
10900;SDS011;5503;53.208;10.392;2023-03-01T03:15:20;6.57;;;3.70;;
10900;SDS011;5503;53.208;10.392;2023-03-01T03:17:48;6.55;;;4.07;;
10900;SDS011;5503;53.208;10.392;2023-03-01T03:20:18;7.57;;;3.85;;
10900;SDS011;5503;53.208;10.392;2023-03-01T03:22:47;6.47;;;4.07;;
10900;SDS011;5503;53.208;10.392;2023-03-01T03:25:15;8.20;;;3.77;;
10900;SDS011;5503;53.208;10.392;2023-03-01T03:27:43;6.03;;;3.28;;
10900;SDS011;5503;53.208;10.392;2023-03-01T03:30:12;6.43;;;3.50;;
10900;SDS011;5503;53.208;10.392;2023-03-01T03:32:40;7.07;;;4.03;;
10900;SDS011;5503;53.208;10.392;2023-03-01T03:35:18;7.60;;;3.83;;
10900;SDS011;5503;53.208;10.392;2023-03-01T03:37:46;5.53;;;3.47;;
10900;SDS011;5503;53.208;10.392;2023-03-01T03:40:28;5.65;;;3.75;;
10900;SDS011;5503;53.208;10.392;2023-03-01T03:42:57;6.28;;;4.00;;
10900;SDS011;5503;53.208;10.392;2023-03-01T03:45:24;9.95;;;3.95;;
10900;SDS011;5503;53.208;10.392;2023-03-01T03:47:51;7.05;;;3.67;;
10900;SDS011;5503;53.208;10.392;2023-03-01T03:50:19;5.53;;;3.47;;
10900;SDS011;5503;53.208;10.392;2023-03-01T03:52:46;6.80;;;3.50;;
10900;SDS011;5503;53.208;10.392;2023-03-01T03:55:13;6.97;;;3.33;;
10900;SDS011;5503;53.208;10.392;2023-03-01T03:57:44;5.35;;;3.25;;
10900;SDS011;5503;53.208;10.392;2023-03-01T04:00:17;5.97;;;3.10;;
10900;SDS011;5503;53.208;10.392;2023-03-01T04:02:46;5.67;;;2.70;;
10900;SDS011;5503;53.208;10.392;2023-03-01T04:05:14;8.73;;;3.45;;
10900;SDS011;5503;53.208;10.392;2023-03-01T04:07:44;6.43;;;3.63;;
10900;SDS011;5503;53.208;10.392;2023-03-01T04:10:12;7.30;;;4.03;;
10900;SDS011;5503;53.208;10.392;2023-03-01T04:12:41;5.18;;;3.13;;
10900;SDS011;5503;53.208;10.392;2023-03-01T04:15:10;5.33;;;3.20;;
10900;SDS011;5503;53.208;10.392;2023-03-01T04:17:40;9.20;;;3.65;;
10900;SDS011;5503;53.208;10.392;2023-03-01T04:20:08;8.68;;;3.50;;
10900;SDS011;5503;53.208;10.392;2023-03-01T04:22:37;7.38;;;3.78;;
10900;SDS011;5503;53.208;10.392;2023-03-01T04:25:06;6.35;;;3.45;;
10900;SDS011;5503;53.208;10.392;2023-03-01T04:27:39;5.60;;;3.43;;
10900;SDS011;5503;53.208;10.392;2023-03-01T04:30:07;6.65;;;3.60;;
10900;SDS011;5503;53.208;10.392;2023-03-01T04:32:35;5.60;;;3.22;;
10900;SDS011;5503;53.208;10.392;2023-03-01T04:35:01;7.50;;;3.20;;
10900;SDS011;5503;53.208;10.392;2023-03-01T04:37:29;7.38;;;3.15;;
10900;SDS011;5503;53.208;10.392;2023-03-01T04:39:56;7.37;;;3.53;;
10900;SDS011;5503;53.208;10.392;2023-03-01T04:42:25;5.10;;;3.00;;
10900;SDS011;5503;53.208;10.392;2023-03-01T04:44:51;6.07;;;3.13;;
10900;SDS011;5503;53.208;10.392;2023-03-01T04:47:18;6.63;;;3.33;;
10900;SDS011;5503;53.208;10.392;2023-03-01T04:49:45;6.72;;;3.63;;
10900;SDS011;5503;53.208;10.392;2023-03-01T04:52:12;5.90;;;3.50;;
10900;SDS011;5503;53.208;10.392;2023-03-01T04:54:39;5.72;;;3.38;;
10900;SDS011;5503;53.208;10.392;2023-03-01T04:57:06;5.35;;;3.33;;
10900;SDS011;5503;53.208;10.392;2023-03-01T04:59:34;6.35;;;3.65;;
10900;SDS011;5503;53.208;10.392;2023-03-01T05:02:01;7.22;;;2.70;;
10900;SDS011;5503;53.208;10.392;2023-03-01T05:04:28;6.07;;;3.60;;
10900;SDS011;5503;53.208;10.392;2023-03-01T05:06:57;7.18;;;3.38;;
10900;SDS011;5503;53.208;10.392;2023-03-01T05:09:24;6.70;;;3.47;;
10900;SDS011;5503;53.208;10.392;2023-03-01T05:11:51;5.75;;;3.35;;
10900;SDS011;5503;53.208;10.392;2023-03-01T05:14:17;5.72;;;3.25;;
10900;SDS011;5503;53.208;10.392;2023-03-01T05:16:46;5.83;;;2.93;;
10900;SDS011;5503;53.208;10.392;2023-03-01T05:19:12;6.32;;;3.95;;
10900;SDS011;5503;53.208;10.392;2023-03-01T05:21:41;8.30;;;3.70;;
10900;SDS011;5503;53.208;10.392;2023-03-01T05:24:22;5.35;;;3.17;;
10900;SDS011;5503;53.208;10.392;2023-03-01T05:26:49;7.07;;;2.67;;
10900;SDS011;5503;53.208;10.392;2023-03-01T05:31:51;5.97;;;3.20;;
10900;SDS011;5503;53.208;10.392;2023-03-01T05:34:19;6.38;;;3.30;;
10900;SDS011;5503;53.208;10.392;2023-03-01T05:36:50;5.30;;;3.13;;
10900;SDS011;5503;53.208;10.392;2023-03-01T05:39:18;5.38;;;2.88;;
10900;SDS011;5503;53.208;10.392;2023-03-01T05:41:47;5.77;;;3.10;;
10900;SDS011;5503;53.208;10.392;2023-03-01T05:44:14;7.53;;;3.30;;
10900;SDS011;5503;53.208;10.392;2023-03-01T05:46:41;5.40;;;3.38;;
10900;SDS011;5503;53.208;10.392;2023-03-01T05:49:09;6.43;;;3.10;;
10900;SDS011;5503;53.208;10.392;2023-03-01T05:51:38;11.07;;;3.10;;
10900;SDS011;5503;53.208;10.392;2023-03-01T05:54:05;5.53;;;3.63;;
10900;SDS011;5503;53.208;10.392;2023-03-01T05:56:32;7.65;;;3.63;;
10900;SDS011;5503;53.208;10.392;2023-03-01T05:59:00;5.07;;;3.10;;
10900;SDS011;5503;53.208;10.392;2023-03-01T06:01:27;5.97;;;3.35;;
10900;SDS011;5503;53.208;10.392;2023-03-01T06:03:54;5.82;;;3.50;;
10900;SDS011;5503;53.208;10.392;2023-03-01T06:06:23;6.43;;;3.57;;
10900;SDS011;5503;53.208;10.392;2023-03-01T06:08:50;5.75;;;3.42;;
10900;SDS011;5503;53.208;10.392;2023-03-01T06:11:17;6.75;;;3.42;;
10900;SDS011;5503;53.208;10.392;2023-03-01T06:13:44;8.18;;;2.72;;
10900;SDS011;5503;53.208;10.392;2023-03-01T06:16:11;6.05;;;3.10;;
10900;SDS011;5503;53.208;10.392;2023-03-01T06:18:39;5.30;;;3.20;;
10900;SDS011;5503;53.208;10.392;2023-03-01T06:21:07;6.25;;;3.38;;
10900;SDS011;5503;53.208;10.392;2023-03-01T06:23:35;6.40;;;3.38;;
10900;SDS011;5503;53.208;10.392;2023-03-01T06:26:04;6.53;;;2.92;;
10900;SDS011;5503;53.208;10.392;2023-03-01T06:28:32;8.05;;;3.80;;
10900;SDS011;5503;53.208;10.392;2023-03-01T06:30:59;6.63;;;3.33;;
10900;SDS011;5503;53.208;10.392;2023-03-01T06:33:25;7.13;;;3.65;;
10900;SDS011;5503;53.208;10.392;2023-03-01T06:35:54;6.32;;;3.70;;
10900;SDS011;5503;53.208;10.392;2023-03-01T06:38:21;5.88;;;3.40;;
10900;SDS011;5503;53.208;10.392;2023-03-01T06:40:52;6.90;;;3.58;;
10900;SDS011;5503;53.208;10.392;2023-03-01T06:43:20;6.13;;;3.20;;
10900;SDS011;5503;53.208;10.392;2023-03-01T06:45:47;5.53;;;3.30;;
10900;SDS011;5503;53.208;10.392;2023-03-01T06:48:14;6.03;;;3.13;;
10900;SDS011;5503;53.208;10.392;2023-03-01T06:50:41;5.78;;;3.28;;
10900;SDS011;5503;53.208;10.392;2023-03-01T06:53:08;6.18;;;3.95;;
10900;SDS011;5503;53.208;10.392;2023-03-01T06:55:35;6.10;;;3.67;;
10900;SDS011;5503;53.208;10.392;2023-03-01T06:58:03;7.22;;;3.38;;
10900;SDS011;5503;53.208;10.392;2023-03-01T07:00:30;6.07;;;2.90;;
10900;SDS011;5503;53.208;10.392;2023-03-01T07:02:58;8.35;;;3.75;;
10900;SDS011;5503;53.208;10.392;2023-03-01T07:05:26;6.78;;;3.58;;
10900;SDS011;5503;53.208;10.392;2023-03-01T07:07:53;7.83;;;3.87;;
10900;SDS011;5503;53.208;10.392;2023-03-01T07:10:21;8.63;;;4.38;;
10900;SDS011;5503;53.208;10.392;2023-03-01T07:12:48;7.30;;;4.20;;
10900;SDS011;5503;53.208;10.392;2023-03-01T07:15:16;6.72;;;4.03;;
10900;SDS011;5503;53.208;10.392;2023-03-01T07:17:43;6.90;;;3.80;;
10900;SDS011;5503;53.208;10.392;2023-03-01T07:20:12;7.23;;;3.60;;
10900;SDS011;5503;53.208;10.392;2023-03-01T07:22:40;7.03;;;3.63;;
10900;SDS011;5503;53.208;10.392;2023-03-01T07:25:08;7.13;;;3.83;;
10900;SDS011;5503;53.208;10.392;2023-03-01T07:27:35;5.90;;;3.50;;
10900;SDS011;5503;53.208;10.392;2023-03-01T07:30:03;8.30;;;4.00;;
10900;SDS011;5503;53.208;10.392;2023-03-01T07:32:32;7.43;;;3.47;;
10900;SDS011;5503;53.208;10.392;2023-03-01T07:34:59;7.07;;;3.92;;
10900;SDS011;5503;53.208;10.392;2023-03-01T07:37:26;5.50;;;3.13;;
10900;SDS011;5503;53.208;10.392;2023-03-01T07:39:52;6.38;;;3.63;;
10900;SDS011;5503;53.208;10.392;2023-03-01T07:42:19;6.78;;;3.70;;
10900;SDS011;5503;53.208;10.392;2023-03-01T07:44:46;6.33;;;3.47;;
10900;SDS011;5503;53.208;10.392;2023-03-01T07:47:13;6.30;;;3.13;;
10900;SDS011;5503;53.208;10.392;2023-03-01T07:49:41;7.22;;;3.50;;
10900;SDS011;5503;53.208;10.392;2023-03-01T07:52:09;6.63;;;3.72;;
10900;SDS011;5503;53.208;10.392;2023-03-01T07:54:37;7.60;;;3.53;;
10900;SDS011;5503;53.208;10.392;2023-03-01T07:57:04;6.70;;;3.67;;
10900;SDS011;5503;53.208;10.392;2023-03-01T07:59:31;7.88;;;4.40;;
10900;SDS011;5503;53.208;10.392;2023-03-01T08:01:58;6.97;;;3.88;;
10900;SDS011;5503;53.208;10.392;2023-03-01T08:04:25;6.57;;;3.25;;
10900;SDS011;5503;53.208;10.392;2023-03-01T08:06:54;5.95;;;3.10;;
10900;SDS011;5503;53.208;10.392;2023-03-01T08:09:21;7.80;;;3.83;;
10900;SDS011;5503;53.208;10.392;2023-03-01T08:11:48;8.32;;;3.45;;
10900;SDS011;5503;53.208;10.392;2023-03-01T08:14:15;6.43;;;3.53;;
10900;SDS011;5503;53.208;10.392;2023-03-01T08:16:42;6.95;;;4.13;;
10900;SDS011;5503;53.208;10.392;2023-03-01T08:19:10;6.30;;;3.60;;
10900;SDS011;5503;53.208;10.392;2023-03-01T08:21:38;7.80;;;3.80;;
10900;SDS011;5503;53.208;10.392;2023-03-01T08:24:06;9.15;;;3.67;;
10900;SDS011;5503;53.208;10.392;2023-03-01T08:26:35;6.10;;;3.30;;
10900;SDS011;5503;53.208;10.392;2023-03-01T08:29:03;7.07;;;3.72;;
10900;SDS011;5503;53.208;10.392;2023-03-01T08:31:30;8.90;;;3.65;;
10900;SDS011;5503;53.208;10.392;2023-03-01T08:34:00;10.33;;;3.97;;
10900;SDS011;5503;53.208;10.392;2023-03-01T08:36:30;6.15;;;3.20;;
10900;SDS011;5503;53.208;10.392;2023-03-01T08:38:58;7.72;;;3.22;;
10900;SDS011;5503;53.208;10.392;2023-03-01T08:41:26;7.45;;;3.83;;
10900;SDS011;5503;53.208;10.392;2023-03-01T08:43:54;6.63;;;3.80;;
10900;SDS011;5503;53.208;10.392;2023-03-01T08:46:23;8.20;;;3.97;;
10900;SDS011;5503;53.208;10.392;2023-03-01T08:48:51;7.30;;;3.80;;
10900;SDS011;5503;53.208;10.392;2023-03-01T08:51:18;7.13;;;3.50;;
10900;SDS011;5503;53.208;10.392;2023-03-01T08:53:46;9.98;;;3.63;;
10900;SDS011;5503;53.208;10.392;2023-03-01T08:56:13;8.52;;;3.53;;
10900;SDS011;5503;53.208;10.392;2023-03-01T08:58:44;6.73;;;3.47;;
10900;SDS011;5503;53.208;10.392;2023-03-01T09:01:13;8.27;;;3.40;;
10900;SDS011;5503;53.208;10.392;2023-03-01T09:03:42;15.27;;;3.28;;
10900;SDS011;5503;53.208;10.392;2023-03-01T09:06:09;9.23;;;2.95;;
10900;SDS011;5503;53.208;10.392;2023-03-01T09:08:37;6.63;;;3.10;;
10900;SDS011;5503;53.208;10.392;2023-03-01T09:11:06;9.10;;;2.80;;
10900;SDS011;5503;53.208;10.392;2023-03-01T09:13:34;7.25;;;2.55;;
10900;SDS011;5503;53.208;10.392;2023-03-01T09:16:04;6.63;;;3.00;;
10900;SDS011;5503;53.208;10.392;2023-03-01T09:18:33;6.53;;;3.33;;
10900;SDS011;5503;53.208;10.392;2023-03-01T09:21:01;6.10;;;2.83;;
10900;SDS011;5503;53.208;10.392;2023-03-01T09:23:32;7.65;;;3.50;;
10900;SDS011;5503;53.208;10.392;2023-03-01T09:25:59;9.07;;;3.33;;
10900;SDS011;5503;53.208;10.392;2023-03-01T09:28:26;6.70;;;3.13;;
10900;SDS011;5503;53.208;10.392;2023-03-01T09:30:53;7.80;;;3.30;;
10900;SDS011;5503;53.208;10.392;2023-03-01T09:33:21;8.80;;;3.55;;
10900;SDS011;5503;53.208;10.392;2023-03-01T09:35:48;9.98;;;4.03;;
10900;SDS011;5503;53.208;10.392;2023-03-01T09:38:15;11.07;;;5.22;;
10900;SDS011;5503;53.208;10.392;2023-03-01T09:40:42;10.93;;;4.75;;
10900;SDS011;5503;53.208;10.392;2023-03-01T09:43:14;15.35;;;5.55;;
10900;SDS011;5503;53.208;10.392;2023-03-01T09:45:47;12.93;;;6.05;;
10900;SDS011;5503;53.208;10.392;2023-03-01T09:48:19;12.95;;;5.53;;
10900;SDS011;5503;53.208;10.392;2023-03-01T09:50:50;12.95;;;4.97;;
10900;SDS011;5503;53.208;10.392;2023-03-01T09:53:18;12.63;;;5.82;;
10900;SDS011;5503;53.208;10.392;2023-03-01T09:55:48;12.23;;;5.88;;
10900;SDS011;5503;53.208;10.392;2023-03-01T09:58:32;13.50;;;5.75;;
10900;SDS011;5503;53.208;10.392;2023-03-01T10:01:10;12.27;;;5.70;;
10900;SDS011;5503;53.208;10.392;2023-03-01T10:03:52;12.20;;;5.45;;
10900;SDS011;5503;53.208;10.392;2023-03-01T10:06:48;11.95;;;5.43;;
10900;SDS011;5503;53.208;10.392;2023-03-01T10:09:21;12.93;;;6.40;;
10900;SDS011;5503;53.208;10.392;2023-03-01T10:11:48;12.98;;;6.03;;
10900;SDS011;5503;53.208;10.392;2023-03-01T10:14:27;16.35;;;5.57;;
10900;SDS011;5503;53.208;10.392;2023-03-01T10:16:59;13.93;;;6.22;;
10900;SDS011;5503;53.208;10.392;2023-03-01T10:19:31;12.55;;;5.45;;
10900;SDS011;5503;53.208;10.392;2023-03-01T10:22:03;11.70;;;5.50;;
10900;SDS011;5503;53.208;10.392;2023-03-01T10:24:36;11.77;;;5.45;;
10900;SDS011;5503;53.208;10.392;2023-03-01T10:27:04;11.30;;;5.80;;
10900;SDS011;5503;53.208;10.392;2023-03-01T10:29:34;10.68;;;4.65;;
10900;SDS011;5503;53.208;10.392;2023-03-01T10:32:08;12.15;;;5.15;;
10900;SDS011;5503;53.208;10.392;2023-03-01T10:34:38;11.77;;;5.30;;
10900;SDS011;5503;53.208;10.392;2023-03-01T10:37:09;12.48;;;5.35;;
10900;SDS011;5503;53.208;10.392;2023-03-01T10:39:37;13.57;;;5.90;;
10900;SDS011;5503;53.208;10.392;2023-03-01T10:42:23;12.07;;;5.82;;
10900;SDS011;5503;53.208;10.392;2023-03-01T10:44:53;12.55;;;5.30;;
10900;SDS011;5503;53.208;10.392;2023-03-01T10:47:21;13.45;;;5.22;;
10900;SDS011;5503;53.208;10.392;2023-03-01T10:49:56;12.88;;;5.45;;
10900;SDS011;5503;53.208;10.392;2023-03-01T10:52:26;14.65;;;5.63;;
10900;SDS011;5503;53.208;10.392;2023-03-01T10:54:56;11.40;;;5.95;;
10900;SDS011;5503;53.208;10.392;2023-03-01T10:57:27;15.10;;;5.50;;
10900;SDS011;5503;53.208;10.392;2023-03-01T11:00:10;9.20;;;4.95;;
10900;SDS011;5503;53.208;10.392;2023-03-01T11:02:45;10.18;;;5.05;;
10900;SDS011;5503;53.208;10.392;2023-03-01T11:05:17;7.70;;;3.83;;
10900;SDS011;5503;53.208;10.392;2023-03-01T11:07:49;11.02;;;5.68;;
10900;SDS011;5503;53.208;10.392;2023-03-01T11:10:18;16.17;;;6.13;;
10900;SDS011;5503;53.208;10.392;2023-03-01T11:12:50;11.85;;;4.78;;
10900;SDS011;5503;53.208;10.392;2023-03-01T11:15:23;16.40;;;6.90;;
10900;SDS011;5503;53.208;10.392;2023-03-01T11:17:51;13.27;;;6.60;;
10900;SDS011;5503;53.208;10.392;2023-03-01T11:20:23;11.38;;;5.50;;
10900;SDS011;5503;53.208;10.392;2023-03-01T11:22:54;13.75;;;6.43;;
10900;SDS011;5503;53.208;10.392;2023-03-01T11:25:23;10.30;;;5.82;;
10900;SDS011;5503;53.208;10.392;2023-03-01T11:27:52;10.07;;;4.78;;
10900;SDS011;5503;53.208;10.392;2023-03-01T11:30:22;12.55;;;6.43;;
10900;SDS011;5503;53.208;10.392;2023-03-01T11:32:54;11.38;;;5.78;;
10900;SDS011;5503;53.208;10.392;2023-03-01T11:35:31;15.88;;;6.63;;
10900;SDS011;5503;53.208;10.392;2023-03-01T11:38:03;12.32;;;5.05;;
10900;SDS011;5503;53.208;10.392;2023-03-01T11:40:44;14.98;;;6.20;;
10900;SDS011;5503;53.208;10.392;2023-03-01T11:43:18;13.63;;;5.28;;
10900;SDS011;5503;53.208;10.392;2023-03-01T11:49:12;15.93;;;6.65;;
10900;SDS011;5503;53.208;10.392;2023-03-01T11:52:08;12.88;;;5.85;;
10900;SDS011;5503;53.208;10.392;2023-03-01T11:54:50;11.85;;;6.32;;
10900;SDS011;5503;53.208;10.392;2023-03-01T11:57:31;15.07;;;7.07;;
10900;SDS011;5503;53.208;10.392;2023-03-01T12:03:19;16.00;;;6.70;;
10900;SDS011;5503;53.208;10.392;2023-03-01T12:06:08;14.13;;;6.30;;
10900;SDS011;5503;53.208;10.392;2023-03-01T12:08:51;13.20;;;6.20;;
10900;SDS011;5503;53.208;10.392;2023-03-01T12:11:35;15.38;;;6.88;;
10900;SDS011;5503;53.208;10.392;2023-03-01T12:14:19;10.93;;;5.53;;
10900;SDS011;5503;53.208;10.392;2023-03-01T12:17:10;14.70;;;7.20;;
10900;SDS011;5503;53.208;10.392;2023-03-01T12:19:53;13.45;;;7.15;;
10900;SDS011;5503;53.208;10.392;2023-03-01T12:22:35;17.40;;;6.70;;
10900;SDS011;5503;53.208;10.392;2023-03-01T12:31:05;10.45;;;4.95;;
10900;SDS011;5503;53.208;10.392;2023-03-01T12:33:54;13.68;;;6.40;;
10900;SDS011;5503;53.208;10.392;2023-03-01T12:36:30;11.27;;;6.20;;
10900;SDS011;5503;53.208;10.392;2023-03-01T12:39:23;12.15;;;6.28;;
10900;SDS011;5503;53.208;10.392;2023-03-01T12:42:07;12.50;;;5.68;;
10900;SDS011;5503;53.208;10.392;2023-03-01T12:44:47;10.48;;;5.30;;
10900;SDS011;5503;53.208;10.392;2023-03-01T12:47:47;13.43;;;6.45;;
10900;SDS011;5503;53.208;10.392;2023-03-01T12:50:23;14.13;;;6.72;;
10900;SDS011;5503;53.208;10.392;2023-03-01T12:52:52;11.63;;;6.53;;
10900;SDS011;5503;53.208;10.392;2023-03-01T12:55:25;13.98;;;5.85;;
10900;SDS011;5503;53.208;10.392;2023-03-01T12:58:00;13.80;;;6.22;;
10900;SDS011;5503;53.208;10.392;2023-03-01T13:00:34;10.90;;;5.88;;
10900;SDS011;5503;53.208;10.392;2023-03-01T13:03:06;12.85;;;6.43;;
10900;SDS011;5503;53.208;10.392;2023-03-01T13:05:42;11.20;;;5.57;;
10900;SDS011;5503;53.208;10.392;2023-03-01T13:08:20;9.43;;;4.75;;
10900;SDS011;5503;53.208;10.392;2023-03-01T13:10:54;14.88;;;6.45;;
10900;SDS011;5503;53.208;10.392;2023-03-01T13:13:26;13.52;;;6.60;;
10900;SDS011;5503;53.208;10.392;2023-03-01T13:15:54;17.38;;;7.20;;
10900;SDS011;5503;53.208;10.392;2023-03-01T13:18:29;13.98;;;6.65;;
10900;SDS011;5503;53.208;10.392;2023-03-01T13:20:57;13.25;;;7.13;;
10900;SDS011;5503;53.208;10.392;2023-03-01T13:23:27;12.23;;;6.60;;
10900;SDS011;5503;53.208;10.392;2023-03-01T13:26:04;14.52;;;6.85;;
10900;SDS011;5503;53.208;10.392;2023-03-01T13:28:44;13.70;;;7.10;;
10900;SDS011;5503;53.208;10.392;2023-03-01T13:34:44;12.77;;;6.15;;
10900;SDS011;5503;53.208;10.392;2023-03-01T13:37:26;13.63;;;7.13;;
10900;SDS011;5503;53.208;10.392;2023-03-01T13:39:58;10.20;;;5.30;;
10900;SDS011;5503;53.208;10.392;2023-03-01T13:42:37;13.40;;;6.65;;
10900;SDS011;5503;53.208;10.392;2023-03-01T13:45:18;14.90;;;6.70;;
10900;SDS011;5503;53.208;10.392;2023-03-01T13:47:49;13.23;;;6.90;;
10900;SDS011;5503;53.208;10.392;2023-03-01T13:50:20;15.45;;;7.43;;
10900;SDS011;5503;53.208;10.392;2023-03-01T13:52:50;12.02;;;6.45;;
10900;SDS011;5503;53.208;10.392;2023-03-01T13:55:24;13.98;;;7.20;;
10900;SDS011;5503;53.208;10.392;2023-03-01T13:57:57;13.90;;;7.05;;
10900;SDS011;5503;53.208;10.392;2023-03-01T14:00:29;14.52;;;6.85;;
10900;SDS011;5503;53.208;10.392;2023-03-01T14:03:08;13.45;;;6.75;;
10900;SDS011;5503;53.208;10.392;2023-03-01T14:05:37;12.80;;;6.10;;
10900;SDS011;5503;53.208;10.392;2023-03-01T14:08:05;13.57;;;6.28;;
10900;SDS011;5503;53.208;10.392;2023-03-01T14:10:48;13.90;;;6.32;;
10900;SDS011;5503;53.208;10.392;2023-03-01T14:13:36;12.25;;;6.50;;
10900;SDS011;5503;53.208;10.392;2023-03-01T14:16:19;13.80;;;7.15;;
10900;SDS011;5503;53.208;10.392;2023-03-01T14:18:55;14.38;;;6.97;;
10900;SDS011;5503;53.208;10.392;2023-03-01T14:21:33;13.05;;;7.13;;
10900;SDS011;5503;53.208;10.392;2023-03-01T14:24:01;13.38;;;6.95;;
10900;SDS011;5503;53.208;10.392;2023-03-01T14:26:29;13.70;;;6.60;;
10900;SDS011;5503;53.208;10.392;2023-03-01T14:28:57;12.52;;;7.05;;
10900;SDS011;5503;53.208;10.392;2023-03-01T14:34:17;13.15;;;6.18;;
10900;SDS011;5503;53.208;10.392;2023-03-01T14:36:46;12.25;;;6.90;;
10900;SDS011;5503;53.208;10.392;2023-03-01T14:39:16;13.63;;;6.57;;
10900;SDS011;5503;53.208;10.392;2023-03-01T14:41:46;14.02;;;6.70;;
10900;SDS011;5503;53.208;10.392;2023-03-01T14:44:14;14.65;;;7.32;;
10900;SDS011;5503;53.208;10.392;2023-03-01T14:46:51;12.07;;;6.25;;
10900;SDS011;5503;53.208;10.392;2023-03-01T14:49:20;12.73;;;6.10;;
10900;SDS011;5503;53.208;10.392;2023-03-01T14:51:50;12.80;;;6.55;;
10900;SDS011;5503;53.208;10.392;2023-03-01T14:54:21;13.50;;;6.35;;
10900;SDS011;5503;53.208;10.392;2023-03-01T14:56:51;14.07;;;6.85;;
10900;SDS011;5503;53.208;10.392;2023-03-01T14:59:19;12.75;;;5.95;;
10900;SDS011;5503;53.208;10.392;2023-03-01T15:01:50;14.02;;;6.88;;
10900;SDS011;5503;53.208;10.392;2023-03-01T15:04:19;14.97;;;6.33;;
10900;SDS011;5503;53.208;10.392;2023-03-01T15:06:47;11.73;;;6.00;;
10900;SDS011;5503;53.208;10.392;2023-03-01T15:09:17;12.23;;;5.88;;
10900;SDS011;5503;53.208;10.392;2023-03-01T15:11:44;13.55;;;6.47;;
10900;SDS011;5503;53.208;10.392;2023-03-01T15:14:28;13.00;;;6.78;;
10900;SDS011;5503;53.208;10.392;2023-03-01T15:17:12;11.68;;;6.10;;
10900;SDS011;5503;53.208;10.392;2023-03-01T15:19:52;14.88;;;6.50;;
10900;SDS011;5503;53.208;10.392;2023-03-01T15:22:19;14.18;;;6.20;;
10900;SDS011;5503;53.208;10.392;2023-03-01T15:24:47;11.15;;;6.22;;